<?xml version="1.0" encoding="UTF-8" standalone="no" ?>
<gpx xmlns="http://www.topografix.com/GPX/1/1" xmlns:xsi="http://www.w3.org/2001/XMLSchema-instance" xsi:schemaLocation="http://www.topografix.com/GPX/1/1 http://www.topografix.com/GPX/1/1/gpx.xsd" version="1.1" creator="VisuGPX - https://www.visugpx.com">
  <metadata>
    <name>SAINT-JEAN-BREVELAY (1) </name>
    <desc><![CDATA[Stationner à l\\\'entrée du village.direction du moulin bon secours.]]></desc>
  </metadata>
  <trk>
    <name><![CDATA[SAINT-JEAN-BREVELAY (1) _1]]></name>
    <trkseg>
      <trkpt lat="47.84377" lon="-2.72033">
        <ele>166</ele>
        <time>2013-11-08T08:51:04Z</time>
      </trkpt>
      <trkpt lat="47.84385" lon="-2.72039">
        <ele>166</ele>
        <time>2013-11-08T08:52:04Z</time>
      </trkpt>
      <trkpt lat="47.84384" lon="-2.72038">
        <ele>168</ele>
        <time>2013-11-08T08:52:33Z</time>
      </trkpt>
      <trkpt lat="47.84378" lon="-2.72035">
        <ele>168</ele>
        <time>2013-11-08T08:53:04Z</time>
      </trkpt>
      <trkpt lat="47.84364" lon="-2.72026">
        <ele>168</ele>
        <time>2013-11-08T08:53:34Z</time>
      </trkpt>
      <trkpt lat="47.84355" lon="-2.7202">
        <ele>168</ele>
        <time>2013-11-08T08:54:04Z</time>
      </trkpt>
      <trkpt lat="47.84338" lon="-2.71971">
        <ele>168</ele>
        <time>2013-11-08T08:54:34Z</time>
      </trkpt>
      <trkpt lat="47.84301" lon="-2.7199">
        <ele>168</ele>
        <time>2013-11-08T08:55:04Z</time>
      </trkpt>
      <trkpt lat="47.84273" lon="-2.71975">
        <ele>168</ele>
        <time>2013-11-08T08:55:35Z</time>
      </trkpt>
      <trkpt lat="47.84234" lon="-2.72006">
        <ele>168</ele>
        <time>2013-11-08T08:56:05Z</time>
      </trkpt>
      <trkpt lat="47.84228" lon="-2.72022">
        <ele>168</ele>
        <time>2013-11-08T08:56:35Z</time>
      </trkpt>
      <trkpt lat="47.84228" lon="-2.72022">
        <ele>168</ele>
        <time>2013-11-08T08:57:05Z</time>
      </trkpt>
      <trkpt lat="47.84223" lon="-2.72038">
        <ele>168</ele>
        <time>2013-11-08T08:57:35Z</time>
      </trkpt>
      <trkpt lat="47.84212" lon="-2.72066">
        <ele>168</ele>
        <time>2013-11-08T08:58:06Z</time>
      </trkpt>
      <trkpt lat="47.84206" lon="-2.72099">
        <ele>168</ele>
        <time>2013-11-08T08:58:36Z</time>
      </trkpt>
      <trkpt lat="47.84186" lon="-2.72143">
        <ele>168</ele>
        <time>2013-11-08T08:59:06Z</time>
      </trkpt>
      <trkpt lat="47.84171" lon="-2.72189">
        <ele>168</ele>
        <time>2013-11-08T08:59:37Z</time>
      </trkpt>
      <trkpt lat="47.84171" lon="-2.7224">
        <ele>172</ele>
        <time>2013-11-08T09:00:06Z</time>
      </trkpt>
      <trkpt lat="47.84158" lon="-2.72244">
        <ele>172</ele>
        <time>2013-11-08T09:00:37Z</time>
      </trkpt>
      <trkpt lat="47.84116" lon="-2.72236">
        <ele>172</ele>
        <time>2013-11-08T09:01:07Z</time>
      </trkpt>
      <trkpt lat="47.84096" lon="-2.72232">
        <ele>176</ele>
        <time>2013-11-08T09:01:37Z</time>
      </trkpt>
      <trkpt lat="47.84069" lon="-2.72294">
        <ele>176</ele>
        <time>2013-11-08T09:02:07Z</time>
      </trkpt>
      <trkpt lat="47.84069" lon="-2.72338">
        <ele>181</ele>
        <time>2013-11-08T09:02:38Z</time>
      </trkpt>
      <trkpt lat="47.84069" lon="-2.72382">
        <ele>186</ele>
        <time>2013-11-08T09:03:08Z</time>
      </trkpt>
      <trkpt lat="47.84069" lon="-2.72431">
        <ele>186</ele>
        <time>2013-11-08T09:03:38Z</time>
      </trkpt>
      <trkpt lat="47.84069" lon="-2.72474">
        <ele>191</ele>
        <time>2013-11-08T09:04:08Z</time>
      </trkpt>
      <trkpt lat="47.84069" lon="-2.72519">
        <ele>191</ele>
        <time>2013-11-08T09:04:38Z</time>
      </trkpt>
      <trkpt lat="47.84071" lon="-2.72573">
        <ele>195</ele>
        <time>2013-11-08T09:05:09Z</time>
      </trkpt>
      <trkpt lat="47.8408" lon="-2.72616">
        <ele>195</ele>
        <time>2013-11-08T09:05:39Z</time>
      </trkpt>
      <trkpt lat="47.84093" lon="-2.72654">
        <ele>195</ele>
        <time>2013-11-08T09:06:09Z</time>
      </trkpt>
      <trkpt lat="47.84105" lon="-2.72688">
        <ele>195</ele>
        <time>2013-11-08T09:06:39Z</time>
      </trkpt>
      <trkpt lat="47.8411" lon="-2.72702">
        <ele>191</ele>
        <time>2013-11-08T09:07:09Z</time>
      </trkpt>
      <trkpt lat="47.84106" lon="-2.7269">
        <ele>191</ele>
        <time>2013-11-08T09:07:39Z</time>
      </trkpt>
      <trkpt lat="47.84018" lon="-2.72745">
        <ele>187</ele>
        <time>2013-11-08T09:08:09Z</time>
      </trkpt>
      <trkpt lat="47.84005" lon="-2.72775">
        <ele>187</ele>
        <time>2013-11-08T09:08:40Z</time>
      </trkpt>
      <trkpt lat="47.83993" lon="-2.72789">
        <ele>182</ele>
        <time>2013-11-08T09:09:10Z</time>
      </trkpt>
      <trkpt lat="47.83974" lon="-2.7279">
        <ele>176</ele>
        <time>2013-11-08T09:09:40Z</time>
      </trkpt>
      <trkpt lat="47.83949" lon="-2.72794">
        <ele>169</ele>
        <time>2013-11-08T09:10:10Z</time>
      </trkpt>
      <trkpt lat="47.83926" lon="-2.72793">
        <ele>165</ele>
        <time>2013-11-08T09:10:41Z</time>
      </trkpt>
      <trkpt lat="47.839" lon="-2.72785">
        <ele>160</ele>
        <time>2013-11-08T09:11:10Z</time>
      </trkpt>
      <trkpt lat="47.83884" lon="-2.72757">
        <ele>160</ele>
        <time>2013-11-08T09:11:41Z</time>
      </trkpt>
      <trkpt lat="47.83868" lon="-2.72728">
        <ele>155</ele>
        <time>2013-11-08T09:12:11Z</time>
      </trkpt>
      <trkpt lat="47.83846" lon="-2.72712">
        <ele>155</ele>
        <time>2013-11-08T09:12:41Z</time>
      </trkpt>
      <trkpt lat="47.83806" lon="-2.72701">
        <ele>151</ele>
        <time>2013-11-08T09:13:11Z</time>
      </trkpt>
      <trkpt lat="47.83767" lon="-2.72695">
        <ele>151</ele>
        <time>2013-11-08T09:13:41Z</time>
      </trkpt>
      <trkpt lat="47.83731" lon="-2.72686">
        <ele>146</ele>
        <time>2013-11-08T09:14:12Z</time>
      </trkpt>
      <trkpt lat="47.83701" lon="-2.72677">
        <ele>146</ele>
        <time>2013-11-08T09:14:42Z</time>
      </trkpt>
      <trkpt lat="47.83672" lon="-2.72659">
        <ele>146</ele>
        <time>2013-11-08T09:15:12Z</time>
      </trkpt>
      <trkpt lat="47.83664" lon="-2.72624">
        <ele>146</ele>
        <time>2013-11-08T09:15:42Z</time>
      </trkpt>
      <trkpt lat="47.83632" lon="-2.72596">
        <ele>146</ele>
        <time>2013-11-08T09:16:12Z</time>
      </trkpt>
      <trkpt lat="47.83604" lon="-2.72586">
        <ele>143</ele>
        <time>2013-11-08T09:16:43Z</time>
      </trkpt>
      <trkpt lat="47.8357" lon="-2.7258">
        <ele>143</ele>
        <time>2013-11-08T09:17:13Z</time>
      </trkpt>
      <trkpt lat="47.83535" lon="-2.72579">
        <ele>139</ele>
        <time>2013-11-08T09:17:43Z</time>
      </trkpt>
      <trkpt lat="47.83496" lon="-2.72576">
        <ele>139</ele>
        <time>2013-11-08T09:18:13Z</time>
      </trkpt>
      <trkpt lat="47.83459" lon="-2.72573">
        <ele>133</ele>
        <time>2013-11-08T09:18:43Z</time>
      </trkpt>
      <trkpt lat="47.83429" lon="-2.7257">
        <ele>129</ele>
        <time>2013-11-08T09:19:14Z</time>
      </trkpt>
      <trkpt lat="47.834" lon="-2.72571">
        <ele>125</ele>
        <time>2013-11-08T09:19:44Z</time>
      </trkpt>
      <trkpt lat="47.83368" lon="-2.72558">
        <ele>120</ele>
        <time>2013-11-08T09:20:14Z</time>
      </trkpt>
      <trkpt lat="47.83356" lon="-2.72513">
        <ele>124</ele>
        <time>2013-11-08T09:20:44Z</time>
      </trkpt>
      <trkpt lat="47.83352" lon="-2.72457">
        <ele>124</ele>
        <time>2013-11-08T09:21:15Z</time>
      </trkpt>
      <trkpt lat="47.83348" lon="-2.72433">
        <ele>124</ele>
        <time>2013-11-08T09:21:44Z</time>
      </trkpt>
      <trkpt lat="47.83346" lon="-2.72429">
        <ele>128</ele>
        <time>2013-11-08T09:22:15Z</time>
      </trkpt>
      <trkpt lat="47.8335" lon="-2.72415">
        <ele>128</ele>
        <time>2013-11-08T09:22:45Z</time>
      </trkpt>
      <trkpt lat="47.83348" lon="-2.72412">
        <ele>128</ele>
        <time>2013-11-08T09:23:15Z</time>
      </trkpt>
      <trkpt lat="47.8335" lon="-2.72377">
        <ele>128</ele>
        <time>2013-11-08T09:23:45Z</time>
      </trkpt>
      <trkpt lat="47.8335" lon="-2.72326">
        <ele>128</ele>
        <time>2013-11-08T09:24:16Z</time>
      </trkpt>
      <trkpt lat="47.83352" lon="-2.72269">
        <ele>128</ele>
        <time>2013-11-08T09:24:45Z</time>
      </trkpt>
      <trkpt lat="47.83353" lon="-2.72219">
        <ele>128</ele>
        <time>2013-11-08T09:25:16Z</time>
      </trkpt>
      <trkpt lat="47.83367" lon="-2.72175">
        <ele>124</ele>
        <time>2013-11-08T09:25:47Z</time>
      </trkpt>
      <trkpt lat="47.83397" lon="-2.72147">
        <ele>124</ele>
        <time>2013-11-08T09:26:17Z</time>
      </trkpt>
      <trkpt lat="47.83408" lon="-2.72118">
        <ele>124</ele>
        <time>2013-11-08T09:26:46Z</time>
      </trkpt>
      <trkpt lat="47.83413" lon="-2.7209">
        <ele>124</ele>
        <time>2013-11-08T09:27:17Z</time>
      </trkpt>
      <trkpt lat="47.83427" lon="-2.72043">
        <ele>120</ele>
        <time>2013-11-08T09:27:47Z</time>
      </trkpt>
      <trkpt lat="47.8343" lon="-2.71993">
        <ele>125</ele>
        <time>2013-11-08T09:28:18Z</time>
      </trkpt>
      <trkpt lat="47.83433" lon="-2.71942">
        <ele>125</ele>
        <time>2013-11-08T09:28:48Z</time>
      </trkpt>
      <trkpt lat="47.83438" lon="-2.71894">
        <ele>129</ele>
        <time>2013-11-08T09:29:18Z</time>
      </trkpt>
      <trkpt lat="47.83444" lon="-2.71856">
        <ele>129</ele>
        <time>2013-11-08T09:29:48Z</time>
      </trkpt>
      <trkpt lat="47.83457" lon="-2.71803">
        <ele>129</ele>
        <time>2013-11-08T09:30:19Z</time>
      </trkpt>
      <trkpt lat="47.83463" lon="-2.71748">
        <ele>134</ele>
        <time>2013-11-08T09:30:48Z</time>
      </trkpt>
      <trkpt lat="47.83477" lon="-2.71715">
        <ele>134</ele>
        <time>2013-11-08T09:31:19Z</time>
      </trkpt>
      <trkpt lat="47.83504" lon="-2.71694">
        <ele>138</ele>
        <time>2013-11-08T09:31:49Z</time>
      </trkpt>
      <trkpt lat="47.8354" lon="-2.71684">
        <ele>138</ele>
        <time>2013-11-08T09:32:19Z</time>
      </trkpt>
      <trkpt lat="47.83547" lon="-2.71662">
        <ele>142</ele>
        <time>2013-11-08T09:32:49Z</time>
      </trkpt>
      <trkpt lat="47.83539" lon="-2.71624">
        <ele>142</ele>
        <time>2013-11-08T09:33:20Z</time>
      </trkpt>
      <trkpt lat="47.83538" lon="-2.71569">
        <ele>138</ele>
        <time>2013-11-08T09:33:50Z</time>
      </trkpt>
      <trkpt lat="47.83524" lon="-2.7153">
        <ele>138</ele>
        <time>2013-11-08T09:34:20Z</time>
      </trkpt>
      <trkpt lat="47.83499" lon="-2.71503">
        <ele>133</ele>
        <time>2013-11-08T09:34:50Z</time>
      </trkpt>
      <trkpt lat="47.83473" lon="-2.71474">
        <ele>133</ele>
        <time>2013-11-08T09:35:20Z</time>
      </trkpt>
      <trkpt lat="47.83459" lon="-2.71421">
        <ele>137</ele>
        <time>2013-11-08T09:35:50Z</time>
      </trkpt>
      <trkpt lat="47.83457" lon="-2.71374">
        <ele>137</ele>
        <time>2013-11-08T09:36:21Z</time>
      </trkpt>
      <trkpt lat="47.83455" lon="-2.71322">
        <ele>137</ele>
        <time>2013-11-08T09:36:51Z</time>
      </trkpt>
      <trkpt lat="47.83456" lon="-2.71269">
        <ele>141</ele>
        <time>2013-11-08T09:37:21Z</time>
      </trkpt>
      <trkpt lat="47.83454" lon="-2.71216">
        <ele>141</ele>
        <time>2013-11-08T09:37:51Z</time>
      </trkpt>
      <trkpt lat="47.83454" lon="-2.71164">
        <ele>141</ele>
        <time>2013-11-08T09:38:22Z</time>
      </trkpt>
      <trkpt lat="47.83459" lon="-2.7111">
        <ele>145</ele>
        <time>2013-11-08T09:38:52Z</time>
      </trkpt>
      <trkpt lat="47.8345" lon="-2.71057">
        <ele>145</ele>
        <time>2013-11-08T09:39:22Z</time>
      </trkpt>
      <trkpt lat="47.83442" lon="-2.71005">
        <ele>145</ele>
        <time>2013-11-08T09:39:52Z</time>
      </trkpt>
      <trkpt lat="47.83442" lon="-2.70953">
        <ele>149</ele>
        <time>2013-11-08T09:40:23Z</time>
      </trkpt>
      <trkpt lat="47.83449" lon="-2.709">
        <ele>149</ele>
        <time>2013-11-08T09:40:52Z</time>
      </trkpt>
      <trkpt lat="47.83467" lon="-2.70855">
        <ele>149</ele>
        <time>2013-11-08T09:41:23Z</time>
      </trkpt>
      <trkpt lat="47.83485" lon="-2.70812">
        <ele>149</ele>
        <time>2013-11-08T09:41:53Z</time>
      </trkpt>
      <trkpt lat="47.83492" lon="-2.70754">
        <ele>153</ele>
        <time>2013-11-08T09:42:23Z</time>
      </trkpt>
      <trkpt lat="47.83491" lon="-2.70703">
        <ele>153</ele>
        <time>2013-11-08T09:42:53Z</time>
      </trkpt>
      <trkpt lat="47.83485" lon="-2.70655">
        <ele>153</ele>
        <time>2013-11-08T09:43:23Z</time>
      </trkpt>
      <trkpt lat="47.83475" lon="-2.70603">
        <ele>153</ele>
        <time>2013-11-08T09:43:53Z</time>
      </trkpt>
      <trkpt lat="47.83464" lon="-2.70547">
        <ele>153</ele>
        <time>2013-11-08T09:44:24Z</time>
      </trkpt>
      <trkpt lat="47.83449" lon="-2.70487">
        <ele>153</ele>
        <time>2013-11-08T09:44:55Z</time>
      </trkpt>
      <trkpt lat="47.83436" lon="-2.70439">
        <ele>153</ele>
        <time>2013-11-08T09:45:24Z</time>
      </trkpt>
      <trkpt lat="47.83421" lon="-2.70391">
        <ele>149</ele>
        <time>2013-11-08T09:45:54Z</time>
      </trkpt>
      <trkpt lat="47.83411" lon="-2.70343">
        <ele>149</ele>
        <time>2013-11-08T09:46:24Z</time>
      </trkpt>
      <trkpt lat="47.83412" lon="-2.70298">
        <ele>149</ele>
        <time>2013-11-08T09:46:55Z</time>
      </trkpt>
      <trkpt lat="47.83408" lon="-2.70239">
        <ele>149</ele>
        <time>2013-11-08T09:47:25Z</time>
      </trkpt>
      <trkpt lat="47.83416" lon="-2.70183">
        <ele>149</ele>
        <time>2013-11-08T09:47:55Z</time>
      </trkpt>
      <trkpt lat="47.83426" lon="-2.70138">
        <ele>149</ele>
        <time>2013-11-08T09:48:25Z</time>
      </trkpt>
      <trkpt lat="47.83424" lon="-2.70091">
        <ele>148</ele>
        <time>2013-11-08T09:48:56Z</time>
      </trkpt>
      <trkpt lat="47.83427" lon="-2.70036">
        <ele>148</ele>
        <time>2013-11-08T09:49:25Z</time>
      </trkpt>
      <trkpt lat="47.83429" lon="-2.69993">
        <ele>152</ele>
        <time>2013-11-08T09:49:56Z</time>
      </trkpt>
      <trkpt lat="47.8343" lon="-2.69949">
        <ele>152</ele>
        <time>2013-11-08T09:50:26Z</time>
      </trkpt>
      <trkpt lat="47.83433" lon="-2.69917">
        <ele>156</ele>
        <time>2013-11-08T09:50:56Z</time>
      </trkpt>
      <trkpt lat="47.83434" lon="-2.69873">
        <ele>156</ele>
        <time>2013-11-08T09:51:27Z</time>
      </trkpt>
      <trkpt lat="47.83438" lon="-2.69836">
        <ele>160</ele>
        <time>2013-11-08T09:51:56Z</time>
      </trkpt>
      <trkpt lat="47.83437" lon="-2.69826">
        <ele>160</ele>
        <time>2013-11-08T09:52:27Z</time>
      </trkpt>
      <trkpt lat="47.83438" lon="-2.69823">
        <ele>160</ele>
        <time>2013-11-08T09:52:57Z</time>
      </trkpt>
      <trkpt lat="47.83445" lon="-2.6978">
        <ele>160</ele>
        <time>2013-11-08T09:53:28Z</time>
      </trkpt>
      <trkpt lat="47.83447" lon="-2.69741">
        <ele>160</ele>
        <time>2013-11-08T09:53:58Z</time>
      </trkpt>
      <trkpt lat="47.83451" lon="-2.69704">
        <ele>165</ele>
        <time>2013-11-08T09:54:28Z</time>
      </trkpt>
      <trkpt lat="47.83464" lon="-2.69657">
        <ele>165</ele>
        <time>2013-11-08T09:54:58Z</time>
      </trkpt>
      <trkpt lat="47.83473" lon="-2.69619">
        <ele>169</ele>
        <time>2013-11-08T09:55:28Z</time>
      </trkpt>
      <trkpt lat="47.83482" lon="-2.69578">
        <ele>173</ele>
        <time>2013-11-08T09:55:59Z</time>
      </trkpt>
      <trkpt lat="47.83493" lon="-2.69541">
        <ele>173</ele>
        <time>2013-11-08T09:56:29Z</time>
      </trkpt>
      <trkpt lat="47.83495" lon="-2.695">
        <ele>178</ele>
        <time>2013-11-08T09:56:59Z</time>
      </trkpt>
      <trkpt lat="47.83494" lon="-2.69459">
        <ele>182</ele>
        <time>2013-11-08T09:57:29Z</time>
      </trkpt>
      <trkpt lat="47.835" lon="-2.69422">
        <ele>182</ele>
        <time>2013-11-08T09:58:00Z</time>
      </trkpt>
      <trkpt lat="47.83513" lon="-2.6939">
        <ele>182</ele>
        <time>2013-11-08T09:58:30Z</time>
      </trkpt>
      <trkpt lat="47.83532" lon="-2.69369">
        <ele>186</ele>
        <time>2013-11-08T09:59:00Z</time>
      </trkpt>
      <trkpt lat="47.83537" lon="-2.69357">
        <ele>186</ele>
        <time>2013-11-08T09:59:30Z</time>
      </trkpt>
      <trkpt lat="47.83541" lon="-2.69355">
        <ele>186</ele>
        <time>2013-11-08T10:00:00Z</time>
      </trkpt>
      <trkpt lat="47.83539" lon="-2.69368">
        <ele>186</ele>
        <time>2013-11-08T10:00:30Z</time>
      </trkpt>
      <trkpt lat="47.83548" lon="-2.69404">
        <ele>186</ele>
        <time>2013-11-08T10:01:01Z</time>
      </trkpt>
      <trkpt lat="47.83557" lon="-2.69442">
        <ele>186</ele>
        <time>2013-11-08T10:01:31Z</time>
      </trkpt>
      <trkpt lat="47.83561" lon="-2.6948">
        <ele>186</ele>
        <time>2013-11-08T10:02:01Z</time>
      </trkpt>
      <trkpt lat="47.8357" lon="-2.69527">
        <ele>186</ele>
        <time>2013-11-08T10:02:32Z</time>
      </trkpt>
      <trkpt lat="47.83582" lon="-2.69567">
        <ele>186</ele>
        <time>2013-11-08T10:03:02Z</time>
      </trkpt>
      <trkpt lat="47.83597" lon="-2.69599">
        <ele>186</ele>
        <time>2013-11-08T10:03:31Z</time>
      </trkpt>
      <trkpt lat="47.83606" lon="-2.69634">
        <ele>186</ele>
        <time>2013-11-08T10:04:02Z</time>
      </trkpt>
      <trkpt lat="47.83614" lon="-2.69675">
        <ele>186</ele>
        <time>2013-11-08T10:04:32Z</time>
      </trkpt>
      <trkpt lat="47.83626" lon="-2.69715">
        <ele>191</ele>
        <time>2013-11-08T10:05:02Z</time>
      </trkpt>
      <trkpt lat="47.83648" lon="-2.6975">
        <ele>191</ele>
        <time>2013-11-08T10:05:32Z</time>
      </trkpt>
      <trkpt lat="47.83668" lon="-2.69786">
        <ele>191</ele>
        <time>2013-11-08T10:06:03Z</time>
      </trkpt>
      <trkpt lat="47.83675" lon="-2.69821">
        <ele>191</ele>
        <time>2013-11-08T10:06:33Z</time>
      </trkpt>
      <trkpt lat="47.8368" lon="-2.69862">
        <ele>191</ele>
        <time>2013-11-08T10:07:03Z</time>
      </trkpt>
      <trkpt lat="47.83679" lon="-2.69905">
        <ele>195</ele>
        <time>2013-11-08T10:07:33Z</time>
      </trkpt>
      <trkpt lat="47.8368" lon="-2.69953">
        <ele>195</ele>
        <time>2013-11-08T10:08:03Z</time>
      </trkpt>
      <trkpt lat="47.83681" lon="-2.69994">
        <ele>199</ele>
        <time>2013-11-08T10:08:33Z</time>
      </trkpt>
      <trkpt lat="47.83675" lon="-2.70025">
        <ele>199</ele>
        <time>2013-11-08T10:09:04Z</time>
      </trkpt>
      <trkpt lat="47.83655" lon="-2.70051">
        <ele>199</ele>
        <time>2013-11-08T10:09:34Z</time>
      </trkpt>
      <trkpt lat="47.83651" lon="-2.70097">
        <ele>199</ele>
        <time>2013-11-08T10:10:04Z</time>
      </trkpt>
      <trkpt lat="47.83656" lon="-2.70146">
        <ele>199</ele>
        <time>2013-11-08T10:10:34Z</time>
      </trkpt>
      <trkpt lat="47.83662" lon="-2.70189">
        <ele>199</ele>
        <time>2013-11-08T10:11:05Z</time>
      </trkpt>
      <trkpt lat="47.83668" lon="-2.7022">
        <ele>199</ele>
        <time>2013-11-08T10:11:35Z</time>
      </trkpt>
      <trkpt lat="47.83678" lon="-2.70265">
        <ele>201</ele>
        <time>2013-11-08T10:12:05Z</time>
      </trkpt>
      <trkpt lat="47.83685" lon="-2.70303">
        <ele>201</ele>
        <time>2013-11-08T10:12:35Z</time>
      </trkpt>
      <trkpt lat="47.83696" lon="-2.70343">
        <ele>205</ele>
        <time>2013-11-08T10:13:05Z</time>
      </trkpt>
      <trkpt lat="47.83705" lon="-2.70381">
        <ele>205</ele>
        <time>2013-11-08T10:13:36Z</time>
      </trkpt>
      <trkpt lat="47.83713" lon="-2.70406">
        <ele>209</ele>
        <time>2013-11-08T10:14:06Z</time>
      </trkpt>
      <trkpt lat="47.83719" lon="-2.70413">
        <ele>209</ele>
        <time>2013-11-08T10:14:36Z</time>
      </trkpt>
      <trkpt lat="47.83729" lon="-2.70416">
        <ele>209</ele>
        <time>2013-11-08T10:15:06Z</time>
      </trkpt>
      <trkpt lat="47.83732" lon="-2.70423">
        <ele>209</ele>
        <time>2013-11-08T10:15:36Z</time>
      </trkpt>
      <trkpt lat="47.83731" lon="-2.70421">
        <ele>209</ele>
        <time>2013-11-08T10:16:06Z</time>
      </trkpt>
      <trkpt lat="47.83732" lon="-2.70409">
        <ele>209</ele>
        <time>2013-11-08T10:16:37Z</time>
      </trkpt>
      <trkpt lat="47.83733" lon="-2.70403">
        <ele>209</ele>
        <time>2013-11-08T10:17:07Z</time>
      </trkpt>
      <trkpt lat="47.83731" lon="-2.70404">
        <ele>209</ele>
        <time>2013-11-08T10:17:37Z</time>
      </trkpt>
      <trkpt lat="47.83723" lon="-2.70409">
        <ele>210</ele>
        <time>2013-11-08T10:18:07Z</time>
      </trkpt>
      <trkpt lat="47.83719" lon="-2.70416">
        <ele>210</ele>
        <time>2013-11-08T10:18:37Z</time>
      </trkpt>
      <trkpt lat="47.83723" lon="-2.70442">
        <ele>210</ele>
        <time>2013-11-08T10:19:08Z</time>
      </trkpt>
      <trkpt lat="47.83729" lon="-2.70473">
        <ele>206</ele>
        <time>2013-11-08T10:19:38Z</time>
      </trkpt>
      <trkpt lat="47.83735" lon="-2.70508">
        <ele>206</ele>
        <time>2013-11-08T10:20:08Z</time>
      </trkpt>
      <trkpt lat="47.83738" lon="-2.70536">
        <ele>201</ele>
        <time>2013-11-08T10:20:38Z</time>
      </trkpt>
      <trkpt lat="47.83735" lon="-2.70568">
        <ele>201</ele>
        <time>2013-11-08T10:21:09Z</time>
      </trkpt>
      <trkpt lat="47.83737" lon="-2.70586">
        <ele>201</ele>
        <time>2013-11-08T10:21:39Z</time>
      </trkpt>
      <trkpt lat="47.8375" lon="-2.70606">
        <ele>201</ele>
        <time>2013-11-08T10:22:10Z</time>
      </trkpt>
      <trkpt lat="47.83759" lon="-2.70642">
        <ele>201</ele>
        <time>2013-11-08T10:22:39Z</time>
      </trkpt>
      <trkpt lat="47.8377" lon="-2.70689">
        <ele>201</ele>
        <time>2013-11-08T10:23:10Z</time>
      </trkpt>
      <trkpt lat="47.83776" lon="-2.70707">
        <ele>201</ele>
        <time>2013-11-08T10:23:40Z</time>
      </trkpt>
      <trkpt lat="47.83786" lon="-2.70727">
        <ele>205</ele>
        <time>2013-11-08T10:24:10Z</time>
      </trkpt>
      <trkpt lat="47.83795" lon="-2.70762">
        <ele>205</ele>
        <time>2013-11-08T10:24:40Z</time>
      </trkpt>
      <trkpt lat="47.83805" lon="-2.70796">
        <ele>205</ele>
        <time>2013-11-08T10:25:10Z</time>
      </trkpt>
      <trkpt lat="47.83802" lon="-2.7083">
        <ele>205</ele>
        <time>2013-11-08T10:25:40Z</time>
      </trkpt>
      <trkpt lat="47.83801" lon="-2.70872">
        <ele>205</ele>
        <time>2013-11-08T10:26:10Z</time>
      </trkpt>
      <trkpt lat="47.83801" lon="-2.70905">
        <ele>205</ele>
        <time>2013-11-08T10:26:41Z</time>
      </trkpt>
      <trkpt lat="47.83807" lon="-2.70937">
        <ele>205</ele>
        <time>2013-11-08T10:27:11Z</time>
      </trkpt>
      <trkpt lat="47.83809" lon="-2.7098">
        <ele>205</ele>
        <time>2013-11-08T10:27:41Z</time>
      </trkpt>
      <trkpt lat="47.83803" lon="-2.71024">
        <ele>205</ele>
        <time>2013-11-08T10:28:11Z</time>
      </trkpt>
      <trkpt lat="47.83806" lon="-2.71077">
        <ele>207</ele>
        <time>2013-11-08T10:28:42Z</time>
      </trkpt>
      <trkpt lat="47.83817" lon="-2.71125">
        <ele>207</ele>
        <time>2013-11-08T10:29:12Z</time>
      </trkpt>
      <trkpt lat="47.83826" lon="-2.71166">
        <ele>207</ele>
        <time>2013-11-08T10:29:42Z</time>
      </trkpt>
      <trkpt lat="47.83839" lon="-2.71205">
        <ele>207</ele>
        <time>2013-11-08T10:30:12Z</time>
      </trkpt>
      <trkpt lat="47.83855" lon="-2.71245">
        <ele>202</ele>
        <time>2013-11-08T10:30:43Z</time>
      </trkpt>
      <trkpt lat="47.83862" lon="-2.71283">
        <ele>202</ele>
        <time>2013-11-08T10:31:13Z</time>
      </trkpt>
      <trkpt lat="47.83871" lon="-2.71321">
        <ele>198</ele>
        <time>2013-11-08T10:31:43Z</time>
      </trkpt>
      <trkpt lat="47.83875" lon="-2.71339">
        <ele>198</ele>
        <time>2013-11-08T10:32:13Z</time>
      </trkpt>
      <trkpt lat="47.83884" lon="-2.7135">
        <ele>198</ele>
        <time>2013-11-08T10:32:43Z</time>
      </trkpt>
      <trkpt lat="47.83884" lon="-2.7136">
        <ele>194</ele>
        <time>2013-11-08T10:33:14Z</time>
      </trkpt>
      <trkpt lat="47.83884" lon="-2.71367">
        <ele>194</ele>
        <time>2013-11-08T10:33:44Z</time>
      </trkpt>
      <trkpt lat="47.83892" lon="-2.71379">
        <ele>194</ele>
        <time>2013-11-08T10:34:14Z</time>
      </trkpt>
      <trkpt lat="47.83896" lon="-2.71404">
        <ele>194</ele>
        <time>2013-11-08T10:34:45Z</time>
      </trkpt>
      <trkpt lat="47.83899" lon="-2.71443">
        <ele>194</ele>
        <time>2013-11-08T10:35:14Z</time>
      </trkpt>
      <trkpt lat="47.8391" lon="-2.7149">
        <ele>194</ele>
        <time>2013-11-08T10:35:45Z</time>
      </trkpt>
      <trkpt lat="47.83922" lon="-2.71539">
        <ele>192</ele>
        <time>2013-11-08T10:36:15Z</time>
      </trkpt>
      <trkpt lat="47.83924" lon="-2.71567">
        <ele>192</ele>
        <time>2013-11-08T10:36:45Z</time>
      </trkpt>
      <trkpt lat="47.83926" lon="-2.71583">
        <ele>192</ele>
        <time>2013-11-08T10:37:15Z</time>
      </trkpt>
      <trkpt lat="47.83927" lon="-2.71595">
        <ele>192</ele>
        <time>2013-11-08T10:37:45Z</time>
      </trkpt>
      <trkpt lat="47.83926" lon="-2.71599">
        <ele>192</ele>
        <time>2013-11-08T10:38:16Z</time>
      </trkpt>
      <trkpt lat="47.83928" lon="-2.71617">
        <ele>189</ele>
        <time>2013-11-08T10:38:46Z</time>
      </trkpt>
      <trkpt lat="47.83926" lon="-2.71637">
        <ele>189</ele>
        <time>2013-11-08T10:39:17Z</time>
      </trkpt>
      <trkpt lat="47.83934" lon="-2.71662">
        <ele>185</ele>
        <time>2013-11-08T10:39:46Z</time>
      </trkpt>
      <trkpt lat="47.83945" lon="-2.71695">
        <ele>185</ele>
        <time>2013-11-08T10:40:16Z</time>
      </trkpt>
      <trkpt lat="47.83966" lon="-2.71713">
        <ele>179</ele>
        <time>2013-11-08T10:40:47Z</time>
      </trkpt>
      <trkpt lat="47.83984" lon="-2.71697">
        <ele>174</ele>
        <time>2013-11-08T10:41:17Z</time>
      </trkpt>
      <trkpt lat="47.83997" lon="-2.71676">
        <ele>166</ele>
        <time>2013-11-08T10:41:48Z</time>
      </trkpt>
      <trkpt lat="47.84018" lon="-2.71673">
        <ele>166</ele>
        <time>2013-11-08T10:42:18Z</time>
      </trkpt>
      <trkpt lat="47.8403" lon="-2.71704">
        <ele>166</ele>
        <time>2013-11-08T10:42:48Z</time>
      </trkpt>
      <trkpt lat="47.8403" lon="-2.7176">
        <ele>162</ele>
        <time>2013-11-08T10:43:18Z</time>
      </trkpt>
      <trkpt lat="47.84024" lon="-2.71798">
        <ele>157</ele>
        <time>2013-11-08T10:43:49Z</time>
      </trkpt>
      <trkpt lat="47.84016" lon="-2.71818">
        <ele>157</ele>
        <time>2013-11-08T10:44:18Z</time>
      </trkpt>
      <trkpt lat="47.84035" lon="-2.71835">
        <ele>157</ele>
        <time>2013-11-08T10:44:49Z</time>
      </trkpt>
      <trkpt lat="47.84063" lon="-2.71859">
        <ele>161</ele>
        <time>2013-11-08T10:45:18Z</time>
      </trkpt>
      <trkpt lat="47.84092" lon="-2.71895">
        <ele>161</ele>
        <time>2013-11-08T10:45:49Z</time>
      </trkpt>
      <trkpt lat="47.84116" lon="-2.71921">
        <ele>161</ele>
        <time>2013-11-08T10:46:19Z</time>
      </trkpt>
      <trkpt lat="47.84141" lon="-2.71919">
        <ele>165</ele>
        <time>2013-11-08T10:46:49Z</time>
      </trkpt>
      <trkpt lat="47.84164" lon="-2.71925">
        <ele>165</ele>
        <time>2013-11-08T10:47:20Z</time>
      </trkpt>
      <trkpt lat="47.8419" lon="-2.71941">
        <ele>165</ele>
        <time>2013-11-08T10:47:50Z</time>
      </trkpt>
      <trkpt lat="47.84216" lon="-2.71952">
        <ele>169</ele>
        <time>2013-11-08T10:48:20Z</time>
      </trkpt>
      <trkpt lat="47.84244" lon="-2.71955">
        <ele>169</ele>
        <time>2013-11-08T10:48:50Z</time>
      </trkpt>
      <trkpt lat="47.84279" lon="-2.71964">
        <ele>169</ele>
        <time>2013-11-08T10:49:20Z</time>
      </trkpt>
      <trkpt lat="47.84312" lon="-2.71971">
        <ele>169</ele>
        <time>2013-11-08T10:49:51Z</time>
      </trkpt>
      <trkpt lat="47.84346" lon="-2.71995">
        <ele>169</ele>
        <time>2013-11-08T10:50:20Z</time>
      </trkpt>
    </trkseg>
  </trk>
</gpx>